Time;durP1;ratioP1;P1;durP2;ratioP2;P2;SDS_P1;SDS_P2;PMS_P1;PMS_P2;Temp;Humidity;BMP_temperature;BMP_pressure;BME280_temperature;BME280_humidity;BME280_pressure;Samples;Min_cycle;Max_cycle;Signal;HPM_P1;HPM_P2
2021/05/19 00:00:51;;;;;;;13.02;11.80;;;10.10;99.90;;;;;;2063024;28;20085;-68
2021/05/19 00:01:52;;;;;;;12.93;11.77;;;10.10;99.90;;;;;;2062630;28;20030;-68
2021/05/19 00:02:52;;;;;;;12.07;11.02;;;10.10;99.90;;;;;;2062092;28;20105;-68
2021/05/19 00:03:53;;;;;;;11.63;10.57;;;10.10;99.90;;;;;;2062600;28;20545;-68
2021/05/19 00:04:53;;;;;;;12.32;11.13;;;10.10;99.90;;;;;;2062418;28;20097;-68
2021/05/19 00:05:54;;;;;;;11.00;9.90;;;10.10;99.90;;;;;;2062568;28;20038;-68
2021/05/19 00:06:54;;;;;;;12.20;11.00;;;10.10;99.90;;;;;;2064235;28;20022;-68
2021/05/19 00:07:55;;;;;;;10.65;9.65;;;10.10;99.90;;;;;;2064315;28;20482;-68
2021/05/19 00:08:56;;;;;;;13.00;11.88;;;10.00;99.90;;;;;;2064180;28;20085;-68
2021/05/19 00:09:56;;;;;;;12.60;11.40;;;10.00;99.90;;;;;;2064448;28;20034;-68
2021/05/19 00:10:57;;;;;;;11.50;10.30;;;10.00;99.90;;;;;;2063864;28;20101;-68
2021/05/19 00:11:57;;;;;;;12.57;11.32;;;10.00;99.90;;;;;;2064469;28;20034;-68
2021/05/19 00:12:58;;;;;;;13.63;11.70;;;10.00;99.90;;;;;;2063464;28;20034;-68
2021/05/19 00:13:59;;;;;;;13.50;12.30;;;10.00;99.90;;;;;;2064407;28;20536;-68
2021/05/19 00:14:59;;;;;;;14.50;13.20;;;10.00;99.90;;;;;;2063942;28;20030;-68
2021/05/19 00:16:00;;;;;;;13.77;12.60;;;10.00;99.90;;;;;;2064404;28;20514;-68
2021/05/19 00:17:01;;;;;;;13.02;11.88;;;9.90;99.90;;;;;;2063946;28;20038;-68
2021/05/19 00:18:05;;;;;;;13.35;12.18;;;9.90;99.90;;;;;;2064226;28;20057;-68
2021/05/19 00:19:06;;;;;;;13.38;12.20;;;9.90;99.90;;;;;;2063718;28;20018;-68
2021/05/19 00:20:07;;;;;;;13.90;12.60;;;9.90;99.90;;;;;;2064468;28;20023;-68
2021/05/19 00:21:08;;;;;;;13.07;11.88;;;9.90;99.90;;;;;;2064156;28;20025;-68
2021/05/19 00:22:09;;;;;;;12.35;11.15;;;9.90;99.90;;;;;;2064153;28;20414;-68
2021/05/19 00:23:10;;;;;;;10.45;9.45;;;9.90;99.90;;;;;;2063988;28;20085;-68
2021/05/19 00:24:11;;;;;;;12.68;11.48;;;9.90;99.90;;;;;;2064094;28;20018;-68
2021/05/19 00:25:11;;;;;;;12.85;11.63;;;9.80;99.90;;;;;;2063820;28;20120;-68
2021/05/19 00:26:12;;;;;;;13.57;12.30;;;9.80;99.90;;;;;;2064052;28;20030;-68
2021/05/19 00:27:13;;;;;;;14.57;13.25;;;9.80;99.90;;;;;;2063886;28;20026;-68
2021/05/19 00:28:13;;;;;;;13.60;12.38;;;9.80;99.90;;;;;;2064581;28;20023;-68
2021/05/19 00:29:15;;;;;;;17.15;13.07;;;9.80;99.90;;;;;;2064130;28;20018;-68
2021/05/19 00:30:19;;;;;;;13.80;12.60;;;9.80;99.90;;;;;;2064167;28;20018;-68
2021/05/19 00:31:22;;;;;;;12.48;11.38;;;9.80;99.90;;;;;;2063926;28;20022;-68
2021/05/19 00:32:23;;;;;;;13.68;12.50;;;9.70;99.90;;;;;;2063553;28;20037;-68
2021/05/19 00:33:24;;;;;;;14.52;13.02;;;9.70;99.90;;;;;;2063884;28;20038;-68
2021/05/19 00:34:25;;;;;;;13.88;12.48;;;9.70;99.90;;;;;;2063928;28;20062;-68
2021/05/19 00:35:25;;;;;;;13.85;12.45;;;9.70;99.90;;;;;;2063774;28;20026;-68
2021/05/19 00:36:26;;;;;;;10.27;9.43;;;9.70;99.90;;;;;;2064052;28;20030;-68
2021/05/19 00:37:27;;;;;;;12.20;11.10;;;9.70;99.90;;;;;;2064041;28;20497;-68
2021/05/19 00:38:27;;;;;;;11.10;10.10;;;9.70;99.90;;;;;;2064141;28;20450;-68
2021/05/19 00:39:28;;;;;;;11.93;10.88;;;9.70;99.90;;;;;;2063572;28;20029;-68
2021/05/19 00:40:29;;;;;;;12.93;11.77;;;9.70;99.90;;;;;;2063994;28;20038;-68
2021/05/19 00:41:30;;;;;;;13.95;12.60;;;9.70;99.90;;;;;;2064090;28;20034;-68
2021/05/19 00:42:31;;;;;;;13.88;12.48;;;9.70;99.90;;;;;;2063562;28;20034;-68
2021/05/19 00:43:31;;;;;;;14.18;12.90;;;9.70;99.90;;;;;;2063676;28;20030;-68
2021/05/19 00:44:32;;;;;;;14.95;13.43;;;9.60;99.90;;;;;;2063996;28;20022;-68
2021/05/19 00:45:32;;;;;;;13.73;12.48;;;9.60;99.90;;;;;;2063826;28;20037;-68
2021/05/19 00:46:34;;;;;;;15.05;13.65;;;9.60;99.90;;;;;;2064146;28;20449;-68
2021/05/19 00:47:37;;;;;;;13.00;11.80;;;9.60;99.90;;;;;;2063981;28;20030;-68
2021/05/19 00:48:38;;;;;;;12.45;11.35;;;9.60;99.90;;;;;;2063955;28;20064;-68
2021/05/19 00:49:39;;;;;;;14.82;13.30;;;9.60;99.90;;;;;;2071410;28;20038;-68
2021/05/19 00:50:39;;;;;;;14.77;12.38;;;9.60;99.90;;;;;;2071014;28;20030;-68
2021/05/19 00:51:40;;;;;;;11.77;10.68;;;9.60;99.90;;;;;;2064038;28;20157;-68
2021/05/19 00:52:41;;;;;;;12.57;11.40;;;9.60;99.90;;;;;;2063245;28;20054;-68
2021/05/19 00:53:42;;;;;;;13.68;12.48;;;9.50;99.90;;;;;;2064280;28;20150;-69
2021/05/19 00:54:42;;;;;;;14.70;13.30;;;9.50;99.90;;;;;;2063797;28;20043;-68
2021/05/19 00:55:43;;;;;;;13.45;12.05;;;9.50;99.90;;;;;;2063726;28;20386;-68
2021/05/19 00:56:44;;;;;;;15.48;13.98;;;9.50;99.90;;;;;;2063906;28;20030;-68
2021/05/19 00:57:46;;;;;;;14.77;13.38;;;9.50;99.90;;;;;;2063962;28;20022;-68
2021/05/19 00:58:47;;;;;;;13.95;12.55;;;9.50;99.90;;;;;;2063749;28;20384;-68
2021/05/19 00:59:48;;;;;;;15.23;13.77;;;9.50;99.90;;;;;;2064001;28;20117;-68
2021/05/19 01:00:49;;;;;;;13.48;12.23;;;9.50;99.90;;;;;;2063920;28;20467;-68
2021/05/19 01:01:50;;;;;;;13.90;12.63;;;9.50;99.90;;;;;;2063901;28;20031;-68
2021/05/19 01:02:52;;;;;;;15.93;14.23;;;9.50;99.90;;;;;;2062934;28;20033;-68
2021/05/19 01:03:53;;;;;;;15.52;14.05;;;9.50;99.90;;;;;;2064155;28;20100;-68
2021/05/19 01:04:54;;;;;;;14.77;13.48;;;9.40;99.90;;;;;;2063147;28;20023;-68
2021/05/19 01:06:02;;;;;;;14.95;13.32;;;9.40;99.90;;;;;;2063820;28;20030;-68
2021/05/19 01:07:08;;;;;;;13.95;12.65;;;9.40;99.90;;;;;;2063735;28;20049;-68
2021/05/19 01:09:35;;;;;;;14.93;13.63;;;9.40;99.90;;;;;;2063919;28;20342;-68
2021/05/19 01:10:35;;;;;;;12.48;11.25;;;9.40;99.90;;;;;;2063770;28;20030;-68
2021/05/19 01:11:37;;;;;;;13.23;12.02;;;9.30;99.90;;;;;;2063556;28;20030;-68
2021/05/19 01:12:38;;;;;;;13.95;12.75;;;9.40;99.90;;;;;;2063236;28;20478;-68
2021/05/19 01:13:44;;;;;;;15.52;14.02;;;9.30;99.90;;;;;;2063907;28;20420;-68
2021/05/19 01:14:45;;;;;;;13.32;12.02;;;9.30;99.90;;;;;;2063639;28;20025;-69
2021/05/19 01:15:47;;;;;;;14.30;13.00;;;9.30;99.90;;;;;;2063755;28;20034;-68
2021/05/19 01:16:48;;;;;;;15.13;13.63;;;9.30;99.90;;;;;;2058283;28;20422;-68
2021/05/19 01:17:49;;;;;;;15.20;13.70;;;9.30;99.90;;;;;;2063622;28;20034;-68
2021/05/19 01:18:50;;;;;;;16.48;14.98;;;9.30;99.90;;;;;;2068757;28;20117;-68
2021/05/19 01:19:52;;;;;;;15.48;13.88;;;9.30;99.90;;;;;;2065503;28;20050;-68
2021/05/19 01:20:56;;;;;;;15.75;14.25;;;9.30;99.90;;;;;;2063205;28;20371;-68
2021/05/19 01:22:07;;;;;;;14.43;13.00;;;9.30;99.90;;;;;;2063851;28;20033;-68
2021/05/19 01:23:08;;;;;;;13.50;12.30;;;9.30;99.90;;;;;;2063116;28;20054;-68
2021/05/19 01:24:09;;;;;;;13.18;12.05;;;9.30;99.90;;;;;;2063411;28;20030;-68
2021/05/19 01:25:10;;;;;;;14.20;12.88;;;9.30;99.90;;;;;;2063477;28;20029;-68
2021/05/19 01:26:13;;;;;;;11.95;10.85;;;9.30;99.90;;;;;;2063897;28;20034;-68
2021/05/19 01:27:13;;;;;;;14.18;12.80;;;9.30;99.90;;;;;;2071035;28;20026;-68
2021/05/19 01:28:14;;;;;;;15.18;13.75;;;9.30;99.90;;;;;;2071190;28;20141;-68
2021/05/19 01:29:15;;;;;;;15.68;13.93;;;9.30;99.90;;;;;;2063322;28;20049;-68
2021/05/19 01:30:16;;;;;;;12.90;11.73;;;9.30;99.90;;;;;;2063978;28;20022;-68
2021/05/19 01:31:17;;;;;;;15.50;13.95;;;9.30;99.90;;;;;;2062714;28;20137;-68
2021/05/19 01:32:19;;;;;;;15.05;13.65;;;9.30;99.90;;;;;;2062240;28;20027;-68
2021/05/19 01:33:20;;;;;;;16.52;15.00;;;9.30;99.90;;;;;;2063350;28;20051;-68
2021/05/19 01:34:21;;;;;;;15.85;14.25;;;9.30;99.90;;;;;;2063643;28;20026;-68
2021/05/19 01:35:21;;;;;;;17.35;15.63;;;9.30;99.90;;;;;;2063526;28;20042;-68
2021/05/19 01:36:22;;;;;;;16.63;15.02;;;9.30;99.90;;;;;;2063310;28;20031;-68
2021/05/19 01:37:23;;;;;;;17.23;15.32;;;9.30;99.90;;;;;;2063292;28;20101;-68
2021/05/19 01:38:23;;;;;;;14.57;13.27;;;9.30;99.90;;;;;;2063845;28;20070;-68
2021/05/19 01:39:24;;;;;;;15.75;14.27;;;9.30;99.90;;;;;;2063192;28;20378;-68
2021/05/19 01:40:24;;;;;;;14.45;12.95;;;9.30;99.90;;;;;;2063805;28;20034;-68
2021/05/19 01:41:25;;;;;;;17.52;15.82;;;9.30;99.90;;;;;;2063652;28;20052;-68
2021/05/19 01:42:25;;;;;;;16.20;14.55;;;9.30;99.90;;;;;;2062757;28;20030;-68
2021/05/19 01:43:33;;;;;;;16.63;15.02;;;9.30;99.90;;;;;;2063146;28;20069;-68
2021/05/19 01:44:35;;;;;;;21.25;17.95;;;9.30;99.90;;;;;;2063671;28;20058;-68
2021/05/19 01:45:35;;;;;;;15.55;14.13;;;9.30;99.90;;;;;;2063360;28;20023;-68
2021/05/19 01:46:36;;;;;;;18.17;16.30;;;9.30;99.90;;;;;;2063631;28;20038;-68
2021/05/19 01:47:41;;;;;;;14.75;13.32;;;9.30;99.90;;;;;;2063429;28;20038;-68
2021/05/19 01:48:43;;;;;;;17.10;15.50;;;9.30;99.90;;;;;;2063703;28;20041;-68
2021/05/19 01:49:44;;;;;;;17.27;15.68;;;9.30;99.90;;;;;;2063277;28;20029;-68
2021/05/19 01:50:47;;;;;;;18.77;17.05;;;9.40;99.90;;;;;;2063320;28;20437;-68
2021/05/19 01:51:48;;;;;;;18.35;16.65;;;9.30;99.90;;;;;;2063369;28;20049;-68
2021/05/19 01:52:52;;;;;;;14.88;13.40;;;9.40;99.90;;;;;;2062736;28;20109;-68
2021/05/19 01:53:53;;;;;;;17.83;15.95;;;9.30;99.90;;;;;;2063424;28;20382;-68
2021/05/19 01:54:54;;;;;;;18.50;16.70;;;9.40;99.90;;;;;;2063150;28;20125;-68
2021/05/19 01:55:55;;;;;;;16.90;15.20;;;9.40;99.90;;;;;;2063280;28;20010;-68
2021/05/19 01:56:56;;;;;;;15.68;14.13;;;9.40;99.90;;;;;;2063399;28;20031;-68
2021/05/19 01:57:57;;;;;;;16.10;14.40;;;9.40;99.90;;;;;;2063701;28;20061;-68
2021/05/19 01:58:58;;;;;;;16.60;14.90;;;9.40;99.90;;;;;;2062706;28;20030;-68
2021/05/19 01:59:59;;;;;;;16.60;15.10;;;9.40;99.90;;;;;;2063154;28;20023;-68
2021/05/19 02:01:00;;;;;;;16.27;14.77;;;9.40;99.90;;;;;;2063390;28;20029;-68
2021/05/19 02:02:00;;;;;;;17.13;15.30;;;9.40;99.90;;;;;;2064974;28;20109;-68
2021/05/19 02:03:06;;;;;;;18.73;16.80;;;9.40;99.90;;;;;;2063732;28;20030;-68
2021/05/19 02:04:15;;;;;;;17.13;15.50;;;9.40;99.90;;;;;;2064818;28;20019;-68
2021/05/19 02:05:17;;;;;;;19.13;17.23;;;9.40;99.90;;;;;;2064529;28;20486;-68
2021/05/19 02:06:17;;;;;;;15.45;14.00;;;9.40;99.90;;;;;;2064905;28;20027;-68
2021/05/19 02:07:18;;;;;;;18.13;16.35;;;9.40;99.90;;;;;;2064623;28;20031;-68
2021/05/19 02:08:18;;;;;;;17.15;15.55;;;9.40;99.90;;;;;;2064741;28;20041;-68
2021/05/19 02:09:19;;;;;;;18.23;16.30;;;9.40;99.90;;;;;;2064468;28;20132;-68
2021/05/19 02:10:20;;;;;;;16.83;15.23;;;9.40;99.90;;;;;;2064930;28;20035;-68
2021/05/19 02:11:21;;;;;;;18.92;17.02;;;9.40;99.90;;;;;;2064461;28;20063;-68
2021/05/19 02:12:22;;;;;;;15.95;14.48;;;9.40;99.90;;;;;;2064196;28;20031;-68
2021/05/19 02:13:23;;;;;;;19.20;16.90;;;9.40;99.90;;;;;;2064219;28;20445;-68
2021/05/19 02:14:23;;;;;;;16.85;15.23;;;9.40;99.90;;;;;;2064492;28;20057;-68
2021/05/19 02:15:24;;;;;;;17.20;15.52;;;9.40;99.90;;;;;;2064351;28;20528;-68
2021/05/19 02:16:24;;;;;;;19.17;17.38;;;9.30;99.90;;;;;;2064821;28;20026;-68
2021/05/19 02:17:28;;;;;;;16.35;14.57;;;9.40;99.90;;;;;;2064512;28;20053;-68
2021/05/19 02:18:28;;;;;;;15.68;13.93;;;9.30;99.90;;;;;;2064714;28;20215;-68
2021/05/19 02:19:29;;;;;;;19.35;17.45;;;9.40;99.90;;;;;;2064527;28;20061;-68
2021/05/19 02:20:30;;;;;;;15.55;13.95;;;9.30;99.90;;;;;;2064965;28;20022;-68
2021/05/19 02:21:30;;;;;;;17.55;15.85;;;9.30;99.90;;;;;;2064265;28;20247;-68
2021/05/19 02:22:31;;;;;;;15.95;14.43;;;9.30;99.90;;;;;;2064082;28;20041;-68
2021/05/19 02:23:31;;;;;;;17.13;15.52;;;9.30;99.90;;;;;;2064462;28;20026;-68
2021/05/19 02:24:32;;;;;;;18.60;16.77;;;9.30;99.90;;;;;;2064598;28;20031;-68
2021/05/19 02:25:33;;;;;;;17.85;16.15;;;9.30;99.90;;;;;;2064110;28;20026;-68
2021/05/19 02:26:33;;;;;;;17.42;15.70;;;9.30;99.90;;;;;;2064906;28;20099;-68
2021/05/19 02:27:34;;;;;;;19.08;17.17;;;9.30;99.90;;;;;;2064439;28;20501;-68
2021/05/19 02:28:35;;;;;;;18.63;16.75;;;9.30;99.90;;;;;;2064550;28;20363;-68
2021/05/19 02:29:36;;;;;;;18.13;16.35;;;9.30;99.90;;;;;;2064105;28;20042;-68
2021/05/19 02:30:36;;;;;;;20.13;18.13;;;9.30;99.90;;;;;;2064655;28;20127;-68
2021/05/19 02:31:38;;;;;;;16.90;15.30;;;9.30;99.90;;;;;;2063827;28;20041;-68
2021/05/19 02:32:39;;;;;;;21.05;18.95;;;9.30;99.90;;;;;;2063639;28;20038;-68
2021/05/19 02:33:40;;;;;;;21.92;18.98;;;9.20;99.90;;;;;;2064329;28;20026;-68
2021/05/19 02:34:41;;;;;;;21.80;19.60;;;9.20;99.90;;;;;;2064132;28;20056;-68
2021/05/19 02:35:41;;;;;;;22.25;19.95;;;9.20;99.90;;;;;;2064238;28;20030;-68
2021/05/19 02:36:42;;;;;;;20.63;18.52;;;9.20;99.90;;;;;;2064574;28;20026;-68
2021/05/19 02:37:44;;;;;;;22.98;20.67;;;9.20;99.90;;;;;;2064087;28;20056;-68
2021/05/19 02:38:44;;;;;;;20.27;18.25;;;9.20;99.90;;;;;;2064037;28;20359;-68
2021/05/19 02:39:45;;;;;;;17.17;15.52;;;9.20;99.90;;;;;;2063843;28;20125;-68
2021/05/19 02:40:46;;;;;;;21.20;19.17;;;9.20;99.90;;;;;;2064552;28;20022;-68
2021/05/19 02:41:47;;;;;;;20.13;18.15;;;9.20;99.90;;;;;;2064313;28;20101;-68
2021/05/19 02:42:48;;;;;;;18.45;16.40;;;9.20;99.90;;;;;;2063793;28;20110;-68
2021/05/19 02:43:48;;;;;;;19.08;17.17;;;9.20;99.90;;;;;;2064457;28;20030;-68
2021/05/19 02:44:49;;;;;;;17.65;15.65;;;9.10;99.90;;;;;;2064408;28;20031;-68
2021/05/19 02:45:49;;;;;;;18.48;16.10;;;9.10;99.90;;;;;;2064520;28;20451;-68
2021/05/19 02:46:50;;;;;;;20.58;17.73;;;9.10;99.90;;;;;;2064356;28;20022;-68
2021/05/19 02:47:50;;;;;;;19.88;17.98;;;9.10;99.90;;;;;;2064633;28;20033;-68
2021/05/19 02:48:51;;;;;;;20.80;18.63;;;9.10;99.90;;;;;;2064169;28;20023;-68
2021/05/19 02:49:52;;;;;;;20.83;18.73;;;9.10;99.90;;;;;;2064449;28;20484;-68
2021/05/19 02:50:52;;;;;;;18.80;17.00;;;9.10;99.90;;;;;;2064544;28;20358;-68
2021/05/19 02:51:53;;;;;;;22.38;20.15;;;9.10;99.90;;;;;;2063122;28;20360;-68
2021/05/19 02:52:54;;;;;;;24.60;22.15;;;9.10;99.90;;;;;;2063573;28;20141;-68
2021/05/19 02:53:55;;;;;;;22.80;20.40;;;9.10;99.90;;;;;;2064248;28;20138;-68
2021/05/19 02:54:55;;;;;;;22.50;18.90;;;9.10;99.90;;;;;;2064298;28;20018;-68
2021/05/19 02:55:56;;;;;;;18.35;16.23;;;9.00;99.90;;;;;;2064220;28;20123;-68
2021/05/19 02:56:57;;;;;;;24.55;21.95;;;9.00;99.90;;;;;;2064323;28;20026;-68
2021/05/19 02:57:57;;;;;;;23.73;21.23;;;9.00;99.90;;;;;;2064374;28;20030;-68
2021/05/19 02:58:58;;;;;;;23.38;20.98;;;9.00;99.90;;;;;;2064401;28;20382;-68
2021/05/19 02:59:58;;;;;;;25.17;22.63;;;9.00;99.90;;;;;;2064123;28;20027;-68
2021/05/19 03:00:59;;;;;;;26.75;23.92;;;9.00;99.90;;;;;;2064211;28;20470;-68
2021/05/19 03:02:00;;;;;;;25.15;22.77;;;9.00;99.90;;;;;;2063340;28;20381;-68
2021/05/19 03:03:00;;;;;;;25.27;22.48;;;9.00;99.90;;;;;;2062379;28;20030;-68
2021/05/19 03:04:01;;;;;;;25.10;22.35;;;9.00;99.90;;;;;;2063584;28;20397;-68
2021/05/19 03:05:03;;;;;;;25.85;23.10;;;9.00;99.90;;;;;;2063175;28;20031;-68
2021/05/19 03:06:03;;;;;;;19.67;17.70;;;9.00;99.90;;;;;;2063532;28;20373;-68
2021/05/19 03:07:04;;;;;;;24.10;21.50;;;9.00;99.90;;;;;;2063339;28;20049;-68
2021/05/19 03:08:05;;;;;;;23.60;20.77;;;9.00;99.90;;;;;;2063306;28;20021;-68
2021/05/19 03:09:06;;;;;;;18.80;16.92;;;9.00;99.90;;;;;;2063217;28;20026;-68
2021/05/19 03:10:07;;;;;;;27.38;23.77;;;9.00;99.90;;;;;;2063103;28;20026;-68
2021/05/19 03:11:11;;;;;;;28.60;25.55;;;8.90;99.90;;;;;;2062418;28;20032;-68
2021/05/19 03:12:11;;;;;;;26.40;23.70;;;9.00;99.90;;;;;;2062678;28;20034;-68
2021/05/19 03:13:12;;;;;;;26.05;23.33;;;8.90;99.90;;;;;;2062798;28;20094;-68
2021/05/19 03:14:13;;;;;;;30.50;25.30;;;8.90;99.90;;;;;;2063275;28;20524;-68
2021/05/19 03:15:14;;;;;;;29.58;26.42;;;9.00;99.90;;;;;;2062663;28;20467;-68
2021/05/19 03:16:14;;;;;;;25.83;23.23;;;9.00;99.90;;;;;;2063013;28;20064;-68
2021/05/19 03:17:15;;;;;;;26.77;23.98;;;8.90;99.90;;;;;;2063039;28;20018;-68
2021/05/19 03:18:16;;;;;;;24.17;21.63;;;8.90;99.90;;;;;;2062791;28;20053;-68
2021/05/19 03:19:16;;;;;;;27.13;24.35;;;8.90;99.90;;;;;;2062820;28;20030;-68
2021/05/19 03:20:17;;;;;;;24.00;21.60;;;8.90;99.90;;;;;;2062978;28;20068;-68
2021/05/19 03:21:17;;;;;;;30.10;26.90;;;8.90;99.90;;;;;;2062881;28;20019;-68
2021/05/19 03:22:18;;;;;;;32.08;28.70;;;8.90;99.90;;;;;;2062135;28;20093;-68
2021/05/19 03:23:19;;;;;;;32.50;29.00;;;8.90;99.90;;;;;;2062680;28;20037;-69
2021/05/19 03:24:19;;;;;;;29.67;26.50;;;9.00;99.90;;;;;;2062619;28;20026;-68
2021/05/19 03:25:20;;;;;;;29.67;26.67;;;9.00;99.90;;;;;;2062889;28;20478;-68
2021/05/19 03:26:21;;;;;;;31.00;27.70;;;9.00;99.90;;;;;;2062763;28;20228;-68
2021/05/19 03:27:22;;;;;;;37.40;30.77;;;9.00;99.90;;;;;;2062454;28;20068;-68
2021/05/19 03:28:22;;;;;;;32.22;28.80;;;9.00;99.90;;;;;;2062329;28;20105;-68
2021/05/19 03:29:23;;;;;;;32.60;29.20;;;9.00;99.90;;;;;;2062984;28;20101;-68
2021/05/19 03:30:24;;;;;;;34.00;30.30;;;9.00;99.90;;;;;;2062676;28;20027;-68
2021/05/19 03:31:25;;;;;;;32.88;29.30;;;9.00;99.90;;;;;;2062686;28;20548;-68
2021/05/19 03:32:25;;;;;;;32.67;28.75;;;9.00;99.90;;;;;;2062285;28;20030;-69
2021/05/19 03:33:26;;;;;;;32.70;29.15;;;9.10;99.90;;;;;;2062839;28;20369;-68
2021/05/19 03:34:26;;;;;;;34.92;31.05;;;9.00;99.90;;;;;;2062949;28;20023;-68
2021/05/19 03:35:27;;;;;;;35.00;31.23;;;9.10;99.90;;;;;;2062893;28;20390;-68
2021/05/19 03:36:28;;;;;;;34.15;29.30;;;9.10;99.90;;;;;;2062781;28;20026;-68
2021/05/19 03:37:28;;;;;;;36.08;32.10;;;9.10;99.90;;;;;;2062891;28;20050;-68
2021/05/19 03:38:29;;;;;;;36.70;32.47;;;9.10;99.90;;;;;;2062913;28;20034;-68
2021/05/19 03:39:30;;;;;;;37.78;31.92;;;9.10;99.90;;;;;;2063074;28;20379;-68
2021/05/19 03:40:31;;;;;;;35.03;31.02;;;9.10;99.90;;;;;;2062626;28;20424;-68
2021/05/19 03:41:31;;;;;;;35.60;31.88;;;9.20;99.90;;;;;;2063627;28;20062;-68
2021/05/19 03:42:32;;;;;;;34.72;30.98;;;9.20;99.90;;;;;;2063752;28;20057;-68
2021/05/19 03:43:34;;;;;;;33.05;29.55;;;9.20;99.90;;;;;;2064307;28;20115;-68
2021/05/19 03:44:34;;;;;;;33.65;29.42;;;9.20;99.90;;;;;;2064430;28;20533;-68
2021/05/19 03:45:35;;;;;;;36.58;32.60;;;9.20;99.90;;;;;;2071926;28;20437;-68
2021/05/19 03:46:36;;;;;;;36.55;31.42;;;9.20;99.90;;;;;;2071854;28;20034;-68
2021/05/19 03:47:36;;;;;;;36.88;31.75;;;9.20;99.90;;;;;;2064528;28;20482;-68
2021/05/19 03:48:37;;;;;;;37.17;32.83;;;9.20;99.90;;;;;;2064219;28;20459;-68
2021/05/19 03:49:39;;;;;;;39.95;35.58;;;9.30;99.90;;;;;;2064160;28;20113;-68
2021/05/19 03:50:40;;;;;;;37.97;31.92;;;9.30;99.90;;;;;;2064403;28;20033;-68
2021/05/19 03:51:43;;;;;;;36.53;32.42;;;9.30;99.90;;;;;;2064500;28;20030;-68
2021/05/19 03:52:44;;;;;;;37.28;33.15;;;9.30;99.90;;;;;;2063765;28;20023;-68
2021/05/19 03:53:44;;;;;;;34.70;31.08;;;9.30;99.90;;;;;;2064133;28;20381;-68
2021/05/19 03:54:45;;;;;;;34.70;30.95;;;9.30;99.90;;;;;;2064339;28;20030;-68
2021/05/19 03:55:46;;;;;;;38.58;32.10;;;9.40;99.90;;;;;;2064380;28;20406;-68
2021/05/19 03:56:50;;;;;;;38.75;34.30;;;9.40;99.90;;;;;;2064510;28;20030;-68
2021/05/19 03:57:51;;;;;;;40.17;35.72;;;9.40;99.90;;;;;;2064490;28;20018;-68
2021/05/19 03:58:51;;;;;;;44.78;35.20;;;9.40;99.90;;;;;;2064515;28;20105;-68
2021/05/19 03:59:52;;;;;;;42.90;36.88;;;9.40;99.90;;;;;;2071503;28;20529;-68
2021/05/19 04:00:53;;;;;;;44.95;35.90;;;9.50;99.90;;;;;;2071691;28;20086;-68
2021/05/19 04:01:54;;;;;;;42.53;36.00;;;9.50;99.90;;;;;;2064031;28;20121;-68
2021/05/19 04:02:55;;;;;;;41.70;35.50;;;9.50;99.90;;;;;;2063695;28;20114;-68
2021/05/19 04:03:55;;;;;;;41.30;35.45;;;9.50;99.90;;;;;;2064063;28;20035;-68
2021/05/19 04:04:56;;;;;;;36.67;32.75;;;9.50;99.90;;;;;;2064191;28;20062;-68
2021/05/19 04:05:57;;;;;;;43.10;37.30;;;9.60;99.90;;;;;;2064068;28;20029;-68
2021/05/19 04:06:57;;;;;;;40.03;35.47;;;9.60;99.90;;;;;;2064328;28;20023;-68
2021/05/19 04:07:58;;;;;;;42.25;35.05;;;9.60;99.90;;;;;;2063951;28;20026;-68
2021/05/19 04:08:58;;;;;;;40.67;35.30;;;9.60;99.90;;;;;;2064452;28;20081;-68
2021/05/19 04:09:59;;;;;;;39.75;35.10;;;9.60;99.90;;;;;;2064072;28;20378;-68
2021/05/19 04:11:00;;;;;;;44.60;35.63;;;9.70;99.90;;;;;;2064190;28;20094;-68
2021/05/19 04:12:00;;;;;;;42.90;36.42;;;9.70;99.90;;;;;;2064179;28;20025;-68
2021/05/19 04:13:04;;;;;;;42.88;36.15;;;9.70;99.90;;;;;;2063628;28;20071;-68
2021/05/19 04:14:05;;;;;;;41.28;36.75;;;9.80;99.90;;;;;;2064021;28;20057;-68
2021/05/19 04:15:06;;;;;;;38.90;34.35;;;9.70;99.90;;;;;;2063995;28;20018;-68
2021/05/19 04:16:07;;;;;;;38.75;34.40;;;9.80;99.90;;;;;;2064041;28;20023;-68
2021/05/19 04:17:08;;;;;;;43.08;37.10;;;9.80;99.90;;;;;;2064466;28;20033;-68
2021/05/19 04:18:09;;;;;;;41.10;35.00;;;9.90;99.90;;;;;;2063921;28;20033;-68
2021/05/19 04:19:09;;;;;;;47.53;38.28;;;9.90;99.90;;;;;;2064307;28;20319;-68
2021/05/19 04:20:11;;;;;;;41.05;36.80;;;9.90;99.90;;;;;;2064264;28;20026;-68
2021/05/19 04:21:11;;;;;;;40.47;35.08;;;9.90;99.90;;;;;;2064199;28;20050;-68
2021/05/19 04:22:12;;;;;;;39.45;35.22;;;9.90;99.90;;;;;;2063485;28;20026;-68
2021/05/19 04:23:13;;;;;;;39.25;34.47;;;10.00;99.90;;;;;;2064086;28;20037;-68
2021/05/19 04:24:13;;;;;;;40.22;35.78;;;10.00;99.90;;;;;;2063339;28;20386;-68
2021/05/19 04:25:14;;;;;;;42.60;35.38;;;10.00;99.90;;;;;;2064344;28;20474;-68
2021/05/19 04:26:15;;;;;;;39.25;32.97;;;10.00;99.90;;;;;;2063934;28;20568;-68
2021/05/19 04:27:16;;;;;;;40.53;35.03;;;10.10;99.90;;;;;;2064504;28;20414;-68
2021/05/19 04:28:16;;;;;;;36.78;32.83;;;10.10;99.90;;;;;;2064028;28;20448;-68
2021/05/19 04:29:17;;;;;;;36.97;32.83;;;10.10;99.90;;;;;;2063937;28;20033;-68
2021/05/19 04:30:18;;;;;;;37.50;33.35;;;10.10;99.90;;;;;;2064182;28;20022;-68
2021/05/19 04:31:19;;;;;;;37.47;33.00;;;10.10;99.90;;;;;;2064214;28;20018;-68
2021/05/19 04:32:20;;;;;;;37.47;33.42;;;10.20;99.90;;;;;;2063199;28;20030;-68
2021/05/19 04:33:22;;;;;;;41.63;32.42;;;10.20;99.90;;;;;;2064659;28;20030;-68
2021/05/19 04:34:22;;;;;;;38.80;33.92;;;10.20;99.90;;;;;;2063754;28;20026;-68
2021/05/19 04:35:23;;;;;;;40.60;34.47;;;10.20;99.90;;;;;;2064176;28;20057;-68
2021/05/19 04:36:24;;;;;;;36.55;32.75;;;10.20;99.90;;;;;;2063865;28;20417;-68
2021/05/19 04:37:24;;;;;;;39.72;33.13;;;10.30;99.90;;;;;;2064117;28;20030;-68
2021/05/19 04:38:25;;;;;;;38.63;34.13;;;10.30;99.90;;;;;;2063981;28;20065;-68
2021/05/19 04:39:26;;;;;;;37.55;32.92;;;10.30;99.90;;;;;;2063690;28;20045;-68
2021/05/19 04:40:26;;;;;;;38.95;31.98;;;10.30;99.90;;;;;;2064146;28;20085;-68
2021/05/19 04:41:27;;;;;;;41.90;31.20;;;10.40;99.90;;;;;;2064216;28;20433;-68
2021/05/19 04:42:27;;;;;;;36.78;32.90;;;10.40;99.90;;;;;;2063530;28;20030;-68
2021/05/19 04:43:28;;;;;;;37.15;33.17;;;10.40;99.90;;;;;;2062943;28;20026;-68
2021/05/19 04:44:29;;;;;;;38.08;31.10;;;10.40;99.90;;;;;;2063456;28;20041;-68
2021/05/19 04:45:29;;;;;;;35.67;31.83;;;10.40;99.90;;;;;;2063752;28;20528;-69
2021/05/19 04:46:30;;;;;;;33.70;30.10;;;10.50;99.90;;;;;;2064317;28;20289;-68
2021/05/19 04:47:31;;;;;;;34.47;29.92;;;10.50;99.90;;;;;;2063727;28;20034;-68
2021/05/19 04:48:31;;;;;;;34.05;30.35;;;10.50;99.90;;;;;;2064063;28;20038;-68
2021/05/19 04:49:32;;;;;;;34.35;30.63;;;10.60;99.90;;;;;;2063585;28;20027;-68
2021/05/19 04:50:33;;;;;;;31.92;28.45;;;10.60;99.90;;;;;;2064079;28;20520;-68
2021/05/19 04:51:35;;;;;;;34.33;30.60;;;10.70;99.90;;;;;;2063934;28;20513;-68
2021/05/19 04:52:36;;;;;;;33.15;29.67;;;10.70;99.90;;;;;;2062585;28;20061;-68
2021/05/19 04:53:36;;;;;;;32.83;29.40;;;10.70;99.90;;;;;;2063300;28;20046;-68
2021/05/19 04:54:37;;;;;;;33.58;29.55;;;10.80;99.90;;;;;;2064239;28;20034;-68
2021/05/19 04:55:38;;;;;;;32.92;29.50;;;10.90;99.90;;;;;;2063888;28;20037;-68
2021/05/19 04:56:39;;;;;;;31.00;27.35;;;10.90;99.90;;;;;;2064051;28;20034;-68
2021/05/19 04:57:40;;;;;;;31.80;27.88;;;11.00;99.90;;;;;;2063742;28;20073;-68
2021/05/19 04:58:40;;;;;;;29.80;26.77;;;11.10;99.90;;;;;;2063542;28;20394;-68
2021/05/19 04:59:41;;;;;;;30.35;26.83;;;11.20;99.90;;;;;;2063665;28;20104;-68
2021/05/19 05:00:42;;;;;;;29.73;26.65;;;11.20;99.90;;;;;;2064315;28;20061;-68
2021/05/19 05:01:43;;;;;;;29.17;25.75;;;11.30;99.90;;;;;;2063786;28;20031;-68
2021/05/19 05:02:44;;;;;;;26.15;23.30;;;11.40;99.90;;;;;;2070804;28;20029;-67
2021/05/19 05:03:45;;;;;;;31.05;23.63;;;11.50;99.90;;;;;;2071475;28;20038;-68
2021/05/19 05:04:45;;;;;;;25.10;22.48;;;11.50;99.90;;;;;;2063867;28;20034;-68
2021/05/19 05:05:47;;;;;;;27.13;24.17;;;11.60;99.90;;;;;;2063573;28;20459;-68
2021/05/19 05:06:47;;;;;;;24.33;21.38;;;11.70;99.90;;;;;;2064397;28;20022;-68
2021/05/19 05:07:48;;;;;;;24.67;22.17;;;11.80;99.90;;;;;;2063607;28;20033;-68
2021/05/19 05:08:48;;;;;;;25.92;22.00;;;11.80;99.90;;;;;;2063895;28;20061;-68
2021/05/19 05:09:49;;;;;;;24.70;22.17;;;11.90;99.90;;;;;;2063321;28;20503;-68
2021/05/19 05:10:49;;;;;;;22.75;19.52;;;12.00;99.90;;;;;;2063899;28;20101;-68
2021/05/19 05:11:50;;;;;;;24.33;21.60;;;12.10;99.90;;;;;;2063518;28;20033;-68
2021/05/19 05:12:50;;;;;;;22.70;20.33;;;12.20;99.90;;;;;;2063335;28;20093;-68
2021/05/19 05:13:51;;;;;;;23.17;20.85;;;12.30;99.90;;;;;;2063924;28;20081;-68
2021/05/19 05:14:52;;;;;;;21.52;19.25;;;12.40;99.90;;;;;;2063675;28;20022;-68